createdAt,value
2022-08-02T00:00:50.847Z,1.40
2022-08-02T00:03:24.852Z,1.20
2022-08-02T00:05:54.027Z,1.40
2022-08-02T00:08:22.683Z,1.40
2022-08-02T00:10:52.375Z,1.50
2022-08-02T00:13:20.668Z,1.97
2022-08-02T00:15:48.965Z,1.40
2022-08-02T00:18:17.796Z,1.47
2022-08-02T00:20:46.018Z,1.70
2022-08-02T00:23:14.581Z,1.70
2022-08-02T00:25:55.178Z,1.40
2022-08-02T00:28:28.265Z,1.20
2022-08-02T00:30:57.436Z,1.50
2022-08-02T00:34:26.622Z,1.33
2022-08-02T00:36:14.662Z,1.30
2022-08-02T00:38:43.378Z,1.37
2022-08-02T00:41:17.294Z,1.40
2022-08-02T00:43:47.936Z,1.60
2022-08-02T00:46:16.687Z,1.60
2022-08-02T00:48:45.010Z,1.50
2022-08-02T00:51:14.237Z,1.90
2022-08-02T00:53:43.085Z,1.50
2022-08-02T00:56:11.747Z,1.53
2022-08-02T00:58:39.934Z,1.60
2022-08-02T01:01:09.716Z,1.70
2022-08-02T01:03:38.313Z,1.60
2022-08-02T01:06:13.862Z,1.57
2022-08-02T01:08:43.906Z,1.70
2022-08-02T01:11:13.358Z,1.73
2022-08-02T01:13:41.904Z,1.67
2022-08-02T01:16:17.545Z,1.80
2022-08-02T01:18:52.391Z,1.90
2022-08-02T01:21:39.678Z,1.60
2022-08-02T01:24:23.765Z,2.10
2022-08-02T01:26:57.568Z,1.73
2022-08-02T01:29:32.909Z,2.00
2022-08-02T01:32:07.480Z,2.00
2022-08-02T01:34:38.802Z,1.93
2022-08-02T01:37:12.607Z,1.93
2022-08-02T01:39:43.910Z,1.97
2022-08-02T01:42:13.847Z,1.83
2022-08-02T01:44:46.934Z,2.10
2022-08-02T01:47:19.425Z,2.53
2022-08-02T01:49:52.163Z,2.23
2022-08-02T01:52:26.685Z,2.30
2022-08-02T01:55:19.132Z,2.40
2022-08-02T01:57:50.924Z,2.17
2022-08-02T02:00:22.310Z,2.17
2022-08-02T02:02:52.590Z,2.00
2022-08-02T02:05:25.769Z,2.53
2022-08-02T02:07:57.337Z,2.43
2022-08-02T02:10:29.961Z,2.80
2022-08-02T02:13:03.785Z,3.03
2022-08-02T02:15:34.222Z,3.20
2022-08-02T02:18:13.155Z,3.07
2022-08-02T02:20:43.350Z,3.13
2022-08-02T02:23:13.424Z,3.20
2022-08-02T02:25:46.556Z,3.10
2022-08-02T02:28:20.188Z,3.20
2022-08-02T02:30:53.406Z,3.23
2022-08-02T02:33:29.022Z,2.83
2022-08-02T02:36:00.542Z,3.20
2022-08-02T02:38:32.826Z,3.40
2022-08-02T02:41:02.855Z,3.37
2022-08-02T02:43:33.845Z,3.63
2022-08-02T02:46:05.851Z,3.37
2022-08-02T02:48:36.157Z,3.70
2022-08-02T02:51:08.234Z,3.70
2022-08-02T02:54:33.469Z,3.50
2022-08-02T02:56:33.370Z,3.70
2022-08-02T02:59:02.429Z,3.40
2022-08-02T03:01:55.089Z,3.30
2022-08-02T03:04:22.436Z,3.70
2022-08-02T03:06:50.837Z,3.13
2022-08-02T03:09:19.087Z,3.20
2022-08-02T03:11:48.437Z,3.10
2022-08-02T03:14:17.725Z,2.80
2022-08-02T03:16:49.251Z,2.77
2022-08-02T03:19:18.758Z,2.40
2022-08-02T03:21:48.385Z,2.70
2022-08-02T03:24:27.990Z,2.67
2022-08-02T03:26:56.809Z,2.93
2022-08-02T03:29:25.424Z,2.57
2022-08-02T03:31:55.619Z,2.73
2022-08-02T03:34:24.514Z,2.57
2022-08-02T03:36:57.262Z,2.10
2022-08-02T03:39:27.022Z,2.33
2022-08-02T03:41:57.021Z,2.60
2022-08-02T03:44:27.749Z,2.53
2022-08-02T03:46:57.777Z,2.70
2022-08-02T03:49:26.710Z,3.20
2022-08-02T03:51:56.429Z,3.10
2022-08-02T03:54:33.069Z,2.30
2022-08-02T03:57:03.924Z,2.80
2022-08-02T03:59:41.594Z,2.60
2022-08-02T04:02:12.244Z,3.03
2022-08-02T04:04:41.600Z,2.80
2022-08-02T04:07:09.779Z,3.10
2022-08-02T04:09:37.969Z,3.03
2022-08-02T04:12:07.066Z,2.67
2022-08-02T04:14:36.787Z,3.27
2022-08-02T04:17:09.642Z,3.40
2022-08-02T04:19:44.807Z,3.43
2022-08-02T04:22:17.946Z,3.40
2022-08-02T04:24:51.885Z,3.03
2022-08-02T04:27:50.169Z,3.27
2022-08-02T04:30:11.798Z,2.83
2022-08-02T04:32:40.685Z,3.43
2022-08-02T04:35:19.291Z,3.00
2022-08-02T04:38:08.906Z,3.53
2022-08-02T04:40:37.289Z,3.40
2022-08-02T04:43:05.893Z,3.00
2022-08-02T04:45:34.475Z,3.50
2022-08-02T04:48:05.011Z,3.50
2022-08-02T04:50:35.950Z,3.13
2022-08-02T04:53:04.370Z,3.20
2022-08-02T04:55:32.679Z,2.90
2022-08-02T04:58:03.980Z,2.70
2022-08-02T05:00:35.603Z,2.60
2022-08-02T05:03:04.330Z,2.27
2022-08-02T05:05:32.556Z,2.60
2022-08-02T05:08:02.601Z,2.40
2022-08-02T05:10:31.197Z,2.10
2022-08-02T05:12:59.365Z,2.20
2022-08-02T05:15:32.906Z,1.70
2022-08-02T05:18:02.168Z,1.90
2022-08-02T05:20:30.398Z,1.80
2022-08-02T05:22:58.578Z,2.00
2022-08-02T05:25:28.925Z,2.07
2022-08-02T05:27:57.129Z,1.97
2022-08-02T05:30:25.458Z,1.90
2022-08-02T05:32:54.155Z,1.70
2022-08-02T05:35:23.525Z,1.60
2022-08-02T05:37:52.688Z,1.70
2022-08-02T05:40:25.510Z,1.63
2022-08-02T05:42:55.946Z,1.50
2022-08-02T05:45:24.633Z,1.17
2022-08-02T05:47:53.253Z,1.60
2022-08-02T05:50:21.821Z,1.23
2022-08-02T05:53:05.480Z,1.30
2022-08-02T05:55:36.507Z,1.20
2022-08-02T05:58:14.690Z,1.17
2022-08-02T06:00:44.545Z,1.20
2022-08-02T06:03:22.128Z,1.23
2022-08-02T06:05:55.244Z,1.27
2022-08-02T06:08:28.783Z,0.90
2022-08-02T06:11:00.887Z,1.00
2022-08-02T06:13:30.772Z,1.20
2022-08-02T06:16:00.645Z,1.10
2022-08-02T06:18:29.493Z,1.03
2022-08-02T06:21:00.191Z,1.20
2022-08-02T06:23:58.679Z,0.93
2022-08-02T06:26:28.275Z,1.30
2022-08-02T06:28:59.358Z,1.00
2022-08-02T06:31:27.593Z,0.90
2022-08-02T06:33:56.380Z,1.00
2022-08-02T06:36:33.265Z,1.20
2022-08-02T06:39:06.175Z,1.10
2022-08-02T06:41:42.386Z,1.07
2022-08-02T06:44:45.631Z,0.97
2022-08-02T06:47:12.077Z,1.20
2022-08-02T06:49:52.766Z,1.00
2022-08-02T06:52:28.291Z,0.90
2022-08-02T06:54:58.091Z,1.07
2022-08-02T06:57:26.677Z,1.03
2022-08-02T06:59:56.607Z,0.93
2022-08-02T07:02:25.289Z,1.00
2022-08-02T07:04:53.841Z,0.83
2022-08-02T07:07:22.237Z,0.90
2022-08-02T07:09:56.620Z,0.90
2022-08-02T07:12:30.962Z,0.90
2022-08-02T07:15:01.106Z,0.90
2022-08-02T07:17:29.455Z,0.80
2022-08-02T07:19:58.200Z,0.80
2022-08-02T07:22:28.297Z,0.70
2022-08-02T07:24:57.470Z,0.80
2022-08-02T07:27:26.111Z,0.80
2022-08-02T07:29:54.773Z,0.70
2022-08-02T07:32:26.783Z,0.60
2022-08-02T07:34:56.073Z,0.77
2022-08-02T07:37:53.324Z,0.53
2022-08-02T07:40:19.895Z,0.70
2022-08-02T07:42:52.017Z,0.50
2022-08-02T07:45:21.825Z,0.60
2022-08-02T07:47:52.480Z,0.63
2022-08-02T07:50:23.932Z,0.70
2022-08-02T07:52:57.095Z,0.73
2022-08-02T07:55:37.961Z,0.60
2022-08-02T07:58:11.251Z,1.07
2022-08-02T08:00:43.640Z,0.80
2022-08-02T08:03:13.436Z,0.50
2022-08-02T08:05:42.170Z,0.60
2022-08-02T08:08:17.118Z,0.70
2022-08-02T08:10:45.913Z,0.60
2022-08-02T08:13:14.846Z,0.70
2022-08-02T08:15:51.610Z,0.67
2022-08-02T08:18:22.745Z,0.70
2022-08-02T08:20:51.823Z,0.50
2022-08-02T08:23:20.336Z,0.57
2022-08-02T08:25:48.658Z,0.50
2022-08-02T08:28:16.858Z,0.60
2022-08-02T08:30:45.618Z,0.60
2022-08-02T08:33:14.217Z,0.50
2022-08-02T08:35:43.824Z,0.70
2022-08-02T08:38:12.183Z,0.57
2022-08-02T08:40:42.465Z,0.40
2022-08-02T08:43:13.232Z,0.47
2022-08-02T08:45:41.870Z,0.93
2022-08-02T08:48:15.821Z,0.40
2022-08-02T08:51:06.030Z,0.50
2022-08-02T08:53:41.281Z,0.43
2022-08-02T08:56:15.954Z,0.40
2022-08-02T08:58:45.184Z,0.60
2022-08-02T09:01:15.417Z,0.47
2022-08-02T09:03:44.077Z,0.50
2022-08-02T09:06:14.198Z,0.60
2022-08-02T09:08:42.412Z,0.50
2022-08-02T09:11:16.238Z,0.60
2022-08-02T09:13:52.067Z,0.45
2022-08-02T09:16:31.366Z,0.30
2022-08-02T09:19:01.732Z,0.35
2022-08-02T09:21:39.253Z,0.50
2022-08-02T09:24:18.705Z,0.57
2022-08-02T09:26:48.382Z,0.30
2022-08-02T09:29:17.653Z,0.50
2022-08-02T09:31:49.895Z,0.40
2022-08-02T09:34:19.857Z,0.50
2022-08-02T09:36:54.386Z,0.50
2022-08-02T09:39:26.523Z,0.75
2022-08-02T09:42:11.315Z,0.47
2022-08-02T09:44:39.718Z,0.40
2022-08-02T09:47:17.604Z,0.40
2022-08-02T09:49:47.779Z,0.60
2022-08-02T09:52:37.234Z,0.60
2022-08-02T09:55:13.321Z,0.52
2022-08-02T09:57:41.635Z,0.40
2022-08-02T10:00:15.004Z,0.35
2022-08-02T10:03:14.899Z,0.30
2022-08-02T10:05:56.000Z,0.50
2022-08-02T10:08:33.971Z,0.40
2022-08-02T10:11:03.564Z,0.43
2022-08-02T10:13:33.146Z,0.20
2022-08-02T10:16:02.919Z,0.30
2022-08-02T10:18:40.889Z,0.30
2022-08-02T10:21:15.250Z,0.40
2022-08-02T10:23:47.353Z,0.25
2022-08-02T10:26:18.843Z,0.30
2022-08-02T10:28:49.650Z,0.30
2022-08-02T10:31:23.553Z,0.30
2022-08-02T10:33:54.043Z,0.40
2022-08-02T10:36:27.364Z,0.30
2022-08-02T10:38:58.873Z,0.30
2022-08-02T10:41:47.294Z,0.20
2022-08-02T10:44:27.579Z,0.22
2022-08-02T10:47:21.475Z,0.20
2022-08-02T10:49:51.754Z,0.30
2022-08-02T10:52:20.959Z,0.25
2022-08-02T10:54:58.045Z,0.30
2022-08-02T10:57:27.873Z,0.15
2022-08-02T10:59:58.790Z,0.30
2022-08-02T11:02:39.437Z,0.10
2022-08-02T11:05:16.397Z,0.22
2022-08-02T11:07:47.416Z,0.20
2022-08-02T11:10:37.648Z,0.20
2022-08-02T11:13:11.662Z,0.30
2022-08-02T11:15:59.492Z,0.30
2022-08-02T11:19:09.250Z,0.30
2022-08-02T11:21:38.096Z,0.20
2022-08-02T11:24:26.157Z,0.30
2022-08-02T11:26:57.202Z,0.20
2022-08-02T11:29:38.092Z,0.30
2022-08-02T11:32:08.291Z,0.10
2022-08-02T11:34:38.313Z,0.20
2022-08-02T11:37:07.708Z,0.13
2022-08-02T11:39:35.939Z,0.20
2022-08-02T11:42:05.946Z,0.20
2022-08-02T11:44:42.633Z,0.20
2022-08-02T11:47:11.124Z,0.20
2022-08-02T11:49:39.687Z,0.35
2022-08-02T11:52:11.618Z,0.30
2022-08-02T11:54:41.572Z,0.20
2022-08-02T11:57:19.669Z,0.30
2022-08-02T11:59:50.138Z,0.30
2022-08-02T12:02:19.929Z,0.20
2022-08-02T12:04:57.319Z,0.38
2022-08-02T12:07:34.550Z,0.25
2022-08-02T12:10:07.930Z,0.20
2022-08-02T12:12:49.027Z,0.20
2022-08-02T12:15:29.511Z,0.25
2022-08-02T12:18:16.803Z,0.30
2022-08-02T12:20:45.524Z,0.17
2022-08-02T12:23:14.675Z,0.38
2022-08-02T12:25:43.440Z,0.30
2022-08-02T12:28:18.330Z,0.30
2022-08-02T12:30:55.186Z,0.30
2022-08-02T12:33:24.925Z,0.17
2022-08-02T12:35:53.798Z,0.38
2022-08-02T12:38:23.072Z,0.30
2022-08-02T12:40:51.443Z,0.40
2022-08-02T12:43:24.904Z,0.38
2022-08-02T12:45:56.659Z,0.30
2022-08-02T12:48:37.689Z,0.30
2022-08-02T12:51:59.024Z,0.40
2022-08-02T12:54:18.088Z,0.28
2022-08-02T12:56:47.077Z,0.35
2022-08-02T12:59:17.640Z,0.30
2022-08-02T13:01:46.802Z,0.32
2022-08-02T13:04:16.521Z,0.30
2022-08-02T13:06:45.679Z,0.30
2022-08-02T13:09:17.199Z,0.30
2022-08-02T13:11:46.577Z,0.50
2022-08-02T13:14:16.557Z,0.30
2022-08-02T13:16:46.985Z,0.57
2022-08-02T13:19:16.534Z,0.30
2022-08-02T13:22:01.938Z,0.30
2022-08-02T13:24:40.173Z,0.40
2022-08-02T13:27:21.623Z,0.40
2022-08-02T13:29:52.344Z,0.20
2022-08-02T13:32:21.184Z,0.28
2022-08-02T13:34:49.744Z,0.40
2022-08-02T13:37:19.154Z,0.47
2022-08-02T13:40:11.706Z,0.30
2022-08-02T13:42:36.723Z,0.50
2022-08-02T13:45:12.581Z,0.50
2022-08-02T13:48:04.349Z,0.30
2022-08-02T13:50:32.506Z,0.80
2022-08-02T13:53:00.702Z,0.30
2022-08-02T13:55:29.183Z,0.47
2022-08-02T13:57:58.147Z,0.30
2022-08-02T14:00:35.615Z,0.70
2022-08-02T14:03:05.958Z,0.50
2022-08-02T14:05:47.234Z,0.50
2022-08-02T14:08:17.986Z,0.40
2022-08-02T14:10:47.182Z,0.60
2022-08-02T14:13:15.553Z,0.68
2022-08-02T14:15:45.627Z,0.47
2022-08-02T14:18:15.546Z,0.70
2022-08-02T14:20:44.339Z,0.60
2022-08-02T14:23:13.057Z,0.52
2022-08-02T14:25:41.623Z,0.47
2022-08-02T14:28:09.835Z,0.65
2022-08-02T14:30:38.403Z,0.50
2022-08-02T14:33:08.383Z,0.47
2022-08-02T14:35:36.989Z,0.60
2022-08-02T14:38:05.315Z,0.63
2022-08-02T14:40:33.778Z,0.60
2022-08-02T14:43:02.645Z,0.70
2022-08-02T14:45:39.868Z,0.50
2022-08-02T14:48:12.380Z,0.60
2022-08-02T14:50:40.965Z,0.40
2022-08-02T14:53:12.132Z,0.65
2022-08-02T14:55:40.566Z,0.65
2022-08-02T14:58:09.103Z,0.50
2022-08-02T15:00:40.815Z,0.60
2022-08-02T15:03:11.174Z,0.60
2022-08-02T15:05:39.850Z,0.63
2022-08-02T15:08:08.543Z,0.70
2022-08-02T15:10:36.947Z,0.60
2022-08-02T15:13:05.701Z,0.88
2022-08-02T15:15:40.519Z,0.60
2022-08-02T15:18:14.107Z,0.85
2022-08-02T15:20:46.228Z,0.73
2022-08-02T15:23:37.095Z,0.60
2022-08-02T15:26:06.405Z,0.60
2022-08-02T15:28:35.485Z,0.70
2022-08-02T15:31:03.746Z,0.75
2022-08-02T15:33:33.676Z,0.80
2022-08-02T15:36:02.590Z,0.60
2022-08-02T15:38:30.854Z,0.52
2022-08-02T15:40:59.125Z,0.75
2022-08-02T15:43:27.878Z,0.52
2022-08-02T15:45:56.112Z,0.70
2022-08-02T15:48:24.315Z,0.80
2022-08-02T15:50:54.072Z,0.60
2022-08-02T15:53:22.341Z,0.93
2022-08-02T15:55:52.763Z,0.80
2022-08-02T15:58:33.826Z,0.67
2022-08-02T16:01:10.807Z,0.60
2022-08-02T16:03:39.467Z,0.60
2022-08-02T16:06:09.032Z,0.80
2022-08-02T16:08:37.205Z,0.70
2022-08-02T16:11:05.515Z,0.80
2022-08-02T16:13:54.209Z,0.70
2022-08-02T16:16:24.204Z,0.67
2022-08-02T16:18:52.496Z,0.70
2022-08-02T16:21:22.965Z,0.60
2022-08-02T16:24:00.489Z,0.50
2022-08-02T16:26:32.225Z,0.67
2022-08-02T16:29:01.838Z,0.63
2022-08-02T16:31:30.496Z,0.60
2022-08-02T16:33:58.785Z,0.80
2022-08-02T16:36:29.006Z,0.87
2022-08-02T16:38:57.941Z,14.40
2022-08-02T16:41:45.593Z,2.37
2022-08-02T16:44:14.858Z,2.00
2022-08-02T16:46:45.742Z,1.97
2022-08-02T16:50:05.484Z,2.10
2022-08-02T16:52:04.131Z,1.40
2022-08-02T16:54:32.549Z,1.30
2022-08-02T16:57:00.793Z,0.93
2022-08-02T16:59:41.879Z,1.30
2022-08-02T17:02:18.161Z,0.90
2022-08-02T17:04:48.511Z,0.80
2022-08-02T17:08:07.694Z,0.63
2022-08-02T17:10:09.220Z,2.07
2022-08-02T17:12:38.927Z,0.67
2022-08-02T17:15:46.971Z,1.83
2022-08-02T17:17:56.724Z,0.80
2022-08-02T17:20:25.629Z,0.60
2022-08-02T17:22:55.387Z,0.70
2022-08-02T17:25:31.829Z,0.90
2022-08-02T17:28:00.530Z,1.00
2022-08-02T17:30:29.813Z,1.20
2022-08-02T17:32:59.386Z,0.90
2022-08-02T17:35:43.459Z,0.80
2022-08-02T17:38:26.750Z,1.00
2022-08-02T17:40:56.146Z,2.10
2022-08-02T17:43:25.973Z,3.20
2022-08-02T17:46:02.109Z,1.30
2022-08-02T17:48:55.103Z,1.10
2022-08-02T17:52:15.993Z,2.07
2022-08-02T17:54:14.761Z,2.90
2022-08-02T17:56:48.162Z,1.00
2022-08-02T17:59:20.446Z,0.77
2022-08-02T18:01:52.868Z,1.07
2022-08-02T18:07:11.406Z,0.87
2022-08-02T18:09:47.168Z,0.80
2022-08-02T18:12:18.250Z,0.70
2022-08-02T18:14:49.275Z,0.70
2022-08-02T18:17:19.155Z,0.80
2022-08-02T18:19:57.216Z,0.50
2022-08-02T18:22:36.628Z,0.80
2022-08-02T18:25:09.359Z,0.90
2022-08-02T18:27:39.073Z,0.87
2022-08-02T18:30:09.008Z,1.00
2022-08-02T18:33:58.937Z,0.80
2022-08-02T18:35:29.589Z,0.80
2022-08-02T18:38:03.781Z,0.97
2022-08-02T18:40:33.958Z,1.00
2022-08-02T18:43:03.462Z,0.73
2022-08-02T18:45:42.129Z,1.10
2022-08-02T18:48:24.161Z,1.20
2022-08-02T18:50:58.209Z,1.03
2022-08-02T18:53:39.021Z,1.00
2022-08-02T18:56:19.793Z,0.97
2022-08-02T19:01:50.725Z,1.20
2022-08-02T19:04:27.881Z,1.13
2022-08-02T19:07:03.908Z,1.07
2022-08-02T19:09:36.335Z,0.90
2022-08-02T19:12:11.578Z,1.50
2022-08-02T19:14:40.386Z,1.50
2022-08-02T19:17:16.108Z,1.30
2022-08-02T19:19:57.132Z,1.70
2022-08-02T19:22:25.378Z,1.33
2022-08-02T19:25:01.131Z,1.23
2022-08-02T19:27:32.484Z,1.40
2022-08-02T19:30:02.263Z,1.37
2022-08-02T19:32:41.731Z,1.50
2022-08-02T19:35:29.660Z,1.20
2022-08-02T19:38:08.650Z,1.80
2022-08-02T19:40:57.023Z,1.63
2022-08-02T19:46:16.306Z,1.60
2022-08-02T19:48:46.168Z,1.43
2022-08-02T19:51:15.730Z,1.90
2022-08-02T19:54:04.206Z,1.50
2022-08-02T19:56:32.789Z,1.83
2022-08-02T19:59:13.772Z,1.40
2022-08-02T20:01:48.793Z,1.40
2022-08-02T20:04:22.842Z,1.40
2022-08-02T20:06:51.708Z,1.80
2022-08-02T20:09:23.233Z,1.60
2022-08-02T20:11:54.309Z,1.53
2022-08-02T20:14:26.945Z,1.83
2022-08-02T20:16:56.792Z,1.80
2022-08-02T20:19:29.126Z,1.90
2022-08-02T20:22:00.642Z,1.80
2022-08-02T20:24:29.764Z,1.70
2022-08-02T20:26:59.012Z,1.57
2022-08-02T20:29:43.395Z,1.93
2022-08-02T20:32:22.374Z,1.77
2022-08-02T20:34:52.410Z,1.70
2022-08-02T20:38:00.765Z,1.80
2022-08-02T20:40:16.690Z,2.10
2022-08-02T20:42:47.570Z,2.50
2022-08-02T20:45:18.171Z,3.23
2022-08-02T20:47:49.703Z,1.80
2022-08-02T20:50:37.356Z,1.70
2022-08-02T20:53:07.098Z,2.00
2022-08-02T20:55:36.753Z,1.97
2022-08-02T20:58:06.466Z,1.77
2022-08-02T21:00:41.702Z,1.77
2022-08-02T21:03:11.983Z,2.00
2022-08-02T21:05:55.141Z,2.00
2022-08-02T21:08:24.732Z,2.03
2022-08-02T21:10:53.414Z,1.90
2022-08-02T21:16:18.444Z,1.90
2022-08-02T21:18:47.793Z,1.83
2022-08-02T21:21:16.574Z,2.20
2022-08-02T21:23:48.794Z,2.00
2022-08-02T21:26:28.012Z,2.00
2022-08-02T21:28:58.440Z,2.20
2022-08-02T21:31:35.596Z,1.90
2022-08-02T21:34:21.731Z,2.00
2022-08-02T21:36:54.467Z,2.00
2022-08-02T21:39:22.902Z,1.77
2022-08-02T21:41:51.166Z,2.07
2022-08-02T21:44:21.883Z,2.07
2022-08-02T21:46:53.098Z,2.47
2022-08-02T21:49:41.174Z,1.93
2022-08-02T21:52:12.009Z,2.10
2022-08-02T21:54:41.078Z,2.00
2022-08-02T21:57:16.585Z,2.23
2022-08-02T21:59:46.344Z,2.00
2022-08-02T22:02:18.524Z,2.17
2022-08-02T22:04:48.292Z,2.17
2022-08-02T22:07:23.969Z,1.97
2022-08-02T22:09:53.415Z,1.80
2022-08-02T22:12:25.891Z,1.23
2022-08-02T22:14:56.700Z,1.57
2022-08-02T22:17:50.939Z,1.67
2022-08-02T22:20:20.330Z,2.43
2022-08-02T22:22:50.504Z,1.73
2022-08-02T22:25:26.748Z,1.77
2022-08-02T22:28:35.818Z,1.90
2022-08-02T22:30:54.474Z,1.93
2022-08-02T22:33:42.253Z,2.27
2022-08-02T22:36:15.450Z,2.03
2022-08-02T22:38:44.487Z,1.90
2022-08-02T22:42:01.667Z,2.13
2022-08-02T22:44:20.662Z,1.90
2022-08-02T22:46:50.130Z,1.87
2022-08-02T22:49:38.579Z,1.90
2022-08-02T22:52:10.597Z,1.80
2022-08-02T22:54:39.196Z,1.80
2022-08-02T22:57:11.480Z,1.90
2022-08-02T22:58:42.981Z,0.97
2022-08-02T22:58:57.897Z,1.27
2022-08-02T22:59:07.763Z,1.30
2022-08-02T22:59:10.805Z,1.83
2022-08-02T22:59:41.286Z,1.80
2022-08-02T23:02:10.020Z,1.60
2022-08-02T23:04:39.959Z,1.60
2022-08-02T23:07:08.505Z,1.93
2022-08-02T23:09:36.693Z,1.80
2022-08-02T23:12:05.392Z,1.93
2022-08-02T23:14:34.605Z,1.83
2022-08-02T23:17:20.145Z,1.57
2022-08-02T23:19:52.916Z,1.70
2022-08-02T23:22:25.136Z,1.70
2022-08-02T23:24:59.169Z,1.83
2022-08-02T23:27:27.388Z,1.50
2022-08-02T23:29:55.595Z,1.43
2022-08-02T23:32:25.741Z,1.50
2022-08-02T23:34:55.697Z,1.80
2022-08-02T23:37:24.629Z,1.80
2022-08-02T23:39:53.042Z,1.93
2022-08-02T23:42:23.324Z,1.40
2022-08-02T23:44:51.693Z,1.50
2022-08-02T23:47:20.249Z,1.90
2022-08-02T23:49:48.633Z,1.57
2022-08-02T23:52:18.866Z,1.67
2022-08-02T23:54:47.656Z,2.00
2022-08-02T23:57:20.673Z,1.50
2022-08-02T23:59:51.260Z,1.67
